Trelew, Argentina
Current Conditions -  °F | °C
As of 3:00 AM on Tuesday 27 Jan 2015 (Local Time) from SAVC Reporting Station
Clear Clear  
Wind Chill: 18°   Ceiling: Unl
Heat Index: 18°   Visibility: 6mi
Dew Point:   Wind: 21mph
Humidity: 45%   Direction: 290°WNW
Pressure: 29.53"   Gusts: 33mph
Location:  43.25°S, 65.3°W
Report Text: SAVC 270600Z 29018G29KT CAVOK 18/06 Q1000
Loading
Personal Weather Stations






























Interactive Weather Map New forecast layout! Learn more

10-Day Weather Forecast

Advertisements
Track Severe Weather on mobile